Highland, Michigan
Current Conditions -  °F | °C
As of 6:53 PM on Sunday 25 Jan 2015 (Local Time) from KPTK Reporting Station
Overcast Overcast  
Wind Chill:   Ceiling: 15000
Heat Index: 17°   Visibility: 10mi
Dew Point:   Wind: 14mph
Humidity: 68%   Direction: 30°NNE
Pressure: 29.95"   Gusts: NA
Location:  42.63°N, 83.61°W
Report Text: KPTK 252353Z 03012KT 10SM SCT100 BKN150 OVC250 M08/M13 A2995 RMK AO2 SLP156 4/003 T10831133 11044 21083 51019 $
Loading
Personal Weather Stations






























Interactive Weather Map New forecast layout! Learn more

10-Day Weather Forecast

Advertisements
Track Severe Weather on mobile